Time;durP1;ratioP1;P1;durP2;ratioP2;P2;SDS_P1;SDS_P2;PMS_P1;PMS_P2;Temp;Humidity;BMP_temperature;BMP_pressure;BME280_temperature;BME280_humidity;BME280_pressure;Samples;Min_cycle;Max_cycle;Signal;HPM_P1;HPM_P2
2024/02/07 00:01:23;;;;;;;7.32;5.03;;;8.40;52.10;;;;;;5075671;28;20230;-69
2024/02/07 00:03:50;;;;;;;8.23;4.68;;;8.40;52.60;;;;;;5075884;28;20273;-69
2024/02/07 00:06:17;;;;;;;7.65;5.10;;;8.30;51.90;;;;;;5075807;28;20241;-69
2024/02/07 00:08:44;;;;;;;10.00;5.53;;;8.40;52.10;;;;;;5076287;28;20281;-69
2024/02/07 00:11:11;;;;;;;8.23;4.85;;;8.30;51.90;;;;;;5076153;28;20229;-69
2024/02/07 00:13:39;;;;;;;7.97;5.35;;;8.40;52.00;;;;;;5075301;28;20272;-69
2024/02/07 00:16:07;;;;;;;7.03;4.70;;;8.40;51.90;;;;;;5076273;28;20194;-69
2024/02/07 00:18:34;;;;;;;8.65;5.93;;;8.30;51.90;;;;;;5075552;28;20301;-69
2024/02/07 00:21:01;;;;;;;7.53;5.65;;;8.30;51.90;;;;;;5076070;28;20277;-69
2024/02/07 00:23:28;;;;;;;7.30;5.57;;;8.30;51.90;;;;;;5075969;28;20222;-69
2024/02/07 00:25:55;;;;;;;8.80;6.80;;;8.30;52.00;;;;;;5075646;28;20233;-69
2024/02/07 00:28:22;;;;;;;8.43;5.40;;;8.30;52.00;;;;;;5067033;28;20599;-69
2024/02/07 00:30:50;;;;;;;6.82;5.20;;;8.30;52.00;;;;;;5055410;28;20648;-69
2024/02/07 00:33:17;;;;;;;8.52;5.78;;;8.30;52.10;;;;;;5055343;28;20683;-69
2024/02/07 00:35:44;;;;;;;7.55;5.10;;;8.30;52.10;;;;;;5055491;28;20236;-69
2024/02/07 00:38:12;;;;;;;9.10;5.45;;;8.40;52.10;;;;;;5057984;28;20210;-69
2024/02/07 00:40:39;;;;;;;10.23;5.68;;;8.30;52.10;;;;;;5075399;28;20201;-69
2024/02/07 00:43:07;;;;;;;8.32;5.45;;;8.40;52.20;;;;;;5075633;28;20196;-69
2024/02/07 00:45:36;;;;;;;8.73;5.13;;;8.30;52.20;;;;;;5075069;28;20240;-69
2024/02/07 00:48:05;;;;;;;7.38;5.20;;;8.30;52.10;;;;;;5074146;28;20222;-69
2024/02/07 00:50:32;;;;;;;10.90;5.45;;;8.30;52.10;;;;;;5075260;28;20558;-69
2024/02/07 00:53:04;;;;;;;7.25;5.03;;;8.30;52.10;;;;;;5075200;28;20198;-69
2024/02/07 00:55:31;;;;;;;10.18;5.55;;;8.30;52.20;;;;;;5075317;28;20590;-69
2024/02/07 00:57:58;;;;;;;8.95;5.50;;;8.30;52.30;;;;;;5074228;28;20254;-69
2024/02/07 01:00:25;;;;;;;8.02;5.68;;;8.30;52.30;;;;;;5074937;28;20221;-69
2024/02/07 01:02:52;;;;;;;7.82;5.40;;;8.30;52.40;;;;;;5074584;28;20286;-69
2024/02/07 01:05:21;;;;;;;8.18;5.55;;;8.30;52.30;;;;;;5074657;28;20229;-69
2024/02/07 01:07:48;;;;;;;11.15;5.60;;;8.30;52.30;;;;;;5074590;28;20684;-69
2024/02/07 01:10:15;;;;;;;8.55;4.72;;;8.30;52.20;;;;;;5074023;28;20679;-69
2024/02/07 01:12:42;;;;;;;8.68;4.70;;;8.30;52.20;;;;;;5074485;28;20209;-69
2024/02/07 01:15:10;;;;;;;7.25;4.80;;;8.30;52.20;;;;;;5074354;28;20226;-69
2024/02/07 01:17:37;;;;;;;8.48;4.95;;;8.20;52.10;;;;;;5074721;28;20245;-69
2024/02/07 01:20:08;;;;;;;6.80;4.65;;;8.30;52.20;;;;;;5074173;28;20213;-69
2024/02/07 01:22:37;;;;;;;5.65;4.57;;;8.30;52.20;;;;;;5074308;28;20229;-69
2024/02/07 01:25:05;;;;;;;4.65;3.38;;;8.30;52.20;;;;;;5074511;28;20190;-69
2024/02/07 01:27:32;;;;;;;7.45;4.78;;;8.20;52.20;;;;;;5073764;28;20628;-69
2024/02/07 01:29:59;;;;;;;9.35;5.15;;;8.30;52.10;;;;;;5074090;28;20273;-69
2024/02/07 01:32:26;;;;;;;8.48;5.00;;;8.30;51.90;;;;;;5073715;28;20194;-69
2024/02/07 01:34:53;;;;;;;10.00;5.38;;;8.30;51.90;;;;;;5074483;28;20276;-69
2024/02/07 01:37:20;;;;;;;6.32;4.20;;;8.30;51.70;;;;;;5074364;28;20588;-69
2024/02/07 01:39:49;;;;;;;11.52;5.18;;;8.30;51.70;;;;;;5074065;28;20277;-69
2024/02/07 01:42:16;;;;;;;8.60;4.70;;;8.30;51.80;;;;;;5074688;28;20229;-69
2024/02/07 01:44:43;;;;;;;7.57;5.07;;;8.40;51.80;;;;;;5074841;28;20285;-68
2024/02/07 01:47:13;;;;;;;5.85;4.05;;;8.40;51.40;;;;;;5073792;28;20245;-69
2024/02/07 01:49:41;;;;;;;10.73;4.07;;;8.40;51.20;;;;;;5073935;28;20289;-69
2024/02/07 01:52:11;;;;;;;7.80;5.30;;;8.40;51.30;;;;;;5073871;28;20273;-69
2024/02/07 01:54:40;;;;;;;7.53;5.03;;;8.40;51.40;;;;;;5073706;28;20230;-69
2024/02/07 01:57:08;;;;;;;7.80;3.92;;;8.40;51.40;;;;;;5073699;28;20652;-69
2024/02/07 01:59:38;;;;;;;7.10;5.00;;;8.40;51.40;;;;;;5073662;28;20229;-69
2024/02/07 02:02:06;;;;;;;6.80;4.55;;;8.40;51.40;;;;;;5073927;28;20240;-69
2024/02/07 02:04:39;;;;;;;6.38;4.20;;;8.40;51.10;;;;;;5073859;28;20186;-69
2024/02/07 02:07:06;;;;;;;7.53;4.95;;;8.40;51.10;;;;;;5074565;28;20221;-69
2024/02/07 02:09:34;;;;;;;6.10;4.50;;;8.40;51.10;;;;;;5074300;28;20204;-69
2024/02/07 02:12:01;;;;;;;7.18;4.20;;;8.40;51.10;;;;;;5074148;28;20187;-69
2024/02/07 02:14:30;;;;;;;8.23;5.20;;;8.40;50.80;;;;;;5074076;28;20201;-69
2024/02/07 02:16:59;;;;;;;10.05;5.22;;;8.50;50.80;;;;;;5073913;28;20226;-69
2024/02/07 02:19:26;;;;;;;6.82;4.18;;;8.50;50.50;;;;;;5073275;28;20304;-69
2024/02/07 02:22:17;;;;;;;9.45;4.43;;;8.50;50.50;;;;;;5073897;28;20190;-69
2024/02/07 02:25:07;;;;;;;5.32;4.35;;;8.50;50.50;;;;;;5073987;28;20202;-69
2024/02/07 02:27:46;;;;;;;5.43;4.40;;;8.50;51.10;;;;;;5074117;28;20596;-70
2024/02/07 02:30:20;;;;;;;9.65;4.82;;;8.50;50.60;;;;;;5072517;28;20174;-69
2024/02/07 02:32:49;;;;;;;7.80;5.10;;;8.40;50.70;;;;;;5072892;28;20179;-69
2024/02/07 02:35:17;;;;;;;7.65;4.90;;;8.40;50.90;;;;;;5071889;28;20214;-69
2024/02/07 02:37:46;;;;;;;8.90;4.55;;;8.30;51.00;;;;;;5073158;28;20268;-69
2024/02/07 02:40:13;;;;;;;10.48;4.47;;;8.40;51.10;;;;;;5072873;28;20186;-69
2024/02/07 02:42:41;;;;;;;7.70;4.47;;;8.40;50.90;;;;;;5073241;28;20193;-69
2024/02/07 02:45:09;;;;;;;8.13;5.00;;;8.40;51.00;;;;;;5073225;28;20197;-69
2024/02/07 02:47:43;;;;;;;7.35;3.80;;;8.30;50.90;;;;;;5073642;28;20371;-69
2024/02/07 02:50:10;;;;;;;6.18;3.90;;;8.40;50.90;;;;;;5073523;28;20284;-69
2024/02/07 02:52:38;;;;;;;9.20;4.50;;;8.30;50.90;;;;;;5071444;28;20678;-69
2024/02/07 02:55:07;;;;;;;7.97;4.28;;;8.30;50.90;;;;;;5073299;28;20200;-69
2024/02/07 02:57:35;;;;;;;5.90;3.85;;;8.40;51.00;;;;;;5073245;28;20201;-69
2024/02/07 03:00:06;;;;;;;8.90;4.68;;;8.30;50.90;;;;;;5073900;28;20202;-69
2024/02/07 03:02:33;;;;;;;6.65;3.92;;;8.30;50.80;;;;;;5072847;28;20617;-69
2024/02/07 03:05:02;;;;;;;5.20;3.47;;;8.40;50.90;;;;;;5073682;28;20281;-69
2024/02/07 03:07:54;;;;;;;5.47;3.55;;;8.40;50.90;;;;;;5073644;28;20190;-69
2024/02/07 03:10:23;;;;;;;4.72;3.45;;;8.40;50.90;;;;;;5073223;28;20525;-69
2024/02/07 03:12:50;;;;;;;6.65;3.78;;;8.40;51.00;;;;;;5073751;28;20194;-69
2024/02/07 03:15:18;;;;;;;5.75;3.53;;;8.40;51.10;;;;;;5073396;28;20190;-69
2024/02/07 03:17:46;;;;;;;6.07;3.63;;;8.30;51.10;;;;;;5072794;28;20707;-69
2024/02/07 03:20:15;;;;;;;7.68;3.65;;;8.30;51.10;;;;;;5072940;28;20194;-69
2024/02/07 03:22:42;;;;;;;8.07;3.55;;;8.30;51.10;;;;;;5053102;28;20187;-69
2024/02/07 03:25:16;;;;;;;5.25;3.58;;;8.40;51.00;;;;;;5052836;28;20230;-69
2024/02/07 03:27:44;;;;;;;8.68;4.40;;;8.40;51.10;;;;;;5052853;28;20237;-69
2024/02/07 03:30:12;;;;;;;9.15;3.33;;;8.40;51.50;;;;;;5052570;28;20183;-69
2024/02/07 03:32:38;;;;;;;8.45;3.53;;;8.40;51.60;;;;;;5052907;28;20286;-69
2024/02/07 03:35:06;;;;;;;7.70;3.78;;;8.40;51.00;;;;;;5053140;28;20230;-69
2024/02/07 03:37:35;;;;;;;7.68;3.33;;;8.40;50.80;;;;;;5054959;28;20242;-69
2024/02/07 03:40:04;;;;;;;7.13;3.95;;;8.40;50.90;;;;;;5056722;28;20260;-69
2024/02/07 03:42:32;;;;;;;6.38;3.25;;;8.40;50.80;;;;;;5056243;28;20194;-69
2024/02/07 03:45:03;;;;;;;7.18;4.28;;;8.40;50.60;;;;;;5056404;28;20191;-69
2024/02/07 03:47:30;;;;;;;10.35;3.45;;;8.40;50.70;;;;;;5056115;28;20226;-69
2024/02/07 03:49:58;;;;;;;5.18;2.97;;;8.40;50.70;;;;;;5056231;28;20724;-69
2024/02/07 03:52:25;;;;;;;5.63;3.40;;;8.40;50.70;;;;;;5055805;28;20223;-69
2024/02/07 03:54:53;;;;;;;4.70;3.00;;;8.40;50.80;;;;;;5056039;28;20662;-69
2024/02/07 03:57:21;;;;;;;6.80;2.90;;;8.40;50.80;;;;;;5056275;28;20195;-69
2024/02/07 03:59:48;;;;;;;6.93;3.15;;;8.40;50.70;;;;;;5055722;28;20651;-69
2024/02/07 04:02:21;;;;;;;6.00;2.50;;;8.40;50.80;;;;;;5055679;28;20186;-69
2024/02/07 04:04:50;;;;;;;6.10;3.05;;;8.50;50.60;;;;;;5055965;28;20269;-69
2024/02/07 04:07:17;;;;;;;6.50;2.60;;;8.50;50.60;;;;;;5055993;28;20190;-69
2024/02/07 04:09:45;;;;;;;5.65;2.67;;;8.50;50.60;;;;;;5055790;28;20202;-69
2024/02/07 05:17:15;;;;;;;3.35;1.60;;;9.00;49.20;;;;;;5054630;28;20183;-69
2024/02/07 05:19:42;;;;;;;6.03;1.70;;;9.00;49.30;;;;;;5057000;28;20206;-69
2024/02/07 05:22:10;;;;;;;4.97;1.73;;;9.00;49.20;;;;;;5074381;28;20222;-69
2024/02/07 05:24:39;;;;;;;5.90;2.15;;;9.10;49.10;;;;;;5074690;28;20293;-69
2024/02/07 05:27:07;;;;;;;4.20;1.75;;;9.10;49.00;;;;;;5074218;28;20194;-69
2024/02/07 05:29:34;;;;;;;4.22;1.70;;;9.10;48.90;;;;;;5074117;28;20281;-69
2024/02/07 05:32:01;;;;;;;7.20;2.50;;;9.10;48.90;;;;;;5074624;28;20693;-69
2024/02/07 05:34:30;;;;;;;3.85;1.70;;;9.10;48.70;;;;;;5074284;28;20233;-69
2024/02/07 05:37:01;;;;;;;4.32;1.40;;;9.20;48.80;;;;;;5066225;28;20186;-69
2024/02/07 05:39:31;;;;;;;6.28;1.85;;;9.20;48.70;;;;;;5054158;28;20199;-69
2024/02/07 05:42:00;;;;;;;4.03;1.77;;;9.20;48.60;;;;;;5054517;28;20545;-69
2024/02/07 05:44:27;;;;;;;4.20;1.50;;;9.20;48.50;;;;;;5054293;28;20195;-69
2024/02/07 05:46:54;;;;;;;7.28;2.38;;;9.20;48.30;;;;;;5053737;28;20218;-69
2024/02/07 05:49:21;;;;;;;3.45;1.70;;;9.20;48.40;;;;;;5054214;28;20238;-69
2024/02/07 05:51:57;;;;;;;6.47;2.47;;;9.20;48.40;;;;;;5054530;28;20683;-69
2024/02/07 05:54:24;;;;;;;4.03;1.60;;;9.20;48.30;;;;;;5054479;28;20178;-69
2024/02/07 05:56:52;;;;;;;7.35;1.85;;;9.30;48.40;;;;;;5053900;28;20278;-69
2024/02/07 05:59:19;;;;;;;2.50;1.23;;;9.30;48.50;;;;;;5053842;28;20217;-69
2024/02/07 06:01:47;;;;;;;3.85;1.60;;;9.30;48.40;;;;;;5054667;28;20278;-69
2024/02/07 06:04:14;;;;;;;5.55;2.17;;;9.30;48.10;;;;;;5054220;28;20233;-69
2024/02/07 06:06:41;;;;;;;3.50;1.70;;;9.30;48.00;;;;;;5053872;28;20270;-69
2024/02/07 06:09:10;;;;;;;7.15;2.13;;;9.30;48.10;;;;;;5053581;28;20282;-69
2024/02/07 06:11:41;;;;;;;4.57;2.08;;;9.40;48.10;;;;;;5053678;28;20256;-69
2024/02/07 06:14:08;;;;;;;3.13;1.40;;;9.30;48.10;;;;;;5053268;28;20221;-69
2024/02/07 06:16:35;;;;;;;4.65;1.90;;;9.30;48.00;;;;;;5067681;28;20186;-69
2024/02/07 06:19:03;;;;;;;8.82;2.10;;;9.30;47.90;;;;;;5072520;28;20656;-70
2024/02/07 06:21:30;;;;;;;6.50;1.70;;;9.40;48.00;;;;;;5065395;28;20190;-69
2024/02/07 06:23:57;;;;;;;5.28;1.95;;;9.40;48.00;;;;;;5052415;28;20195;-69
2024/02/07 06:26:25;;;;;;;7.55;1.52;;;9.40;48.00;;;;;;5063760;28;20277;-69
2024/02/07 06:28:52;;;;;;;2.53;1.50;;;9.40;48.10;;;;;;5072885;28;20194;-69
2024/02/07 06:31:20;;;;;;;5.43;1.40;;;9.40;48.10;;;;;;5070460;28;20182;-69
2024/02/07 06:33:47;;;;;;;2.58;1.10;;;9.40;48.00;;;;;;5061188;28;20190;-69
2024/02/07 06:36:14;;;;;;;5.50;2.60;;;9.50;47.80;;;;;;5072836;28;20221;-69
2024/02/07 06:38:41;;;;;;;4.63;1.60;;;9.50;47.90;;;;;;5058646;28;20621;-69
2024/02/07 06:41:08;;;;;;;2.63;1.45;;;9.50;47.90;;;;;;5052555;28;20229;-69
2024/02/07 06:43:42;;;;;;;6.47;1.83;;;9.50;47.80;;;;;;5052503;28;20190;-69
2024/02/07 06:46:08;;;;;;;3.40;1.50;;;9.50;47.70;;;;;;5052183;28;20218;-69
2024/02/07 06:48:35;;;;;;;3.03;1.38;;;9.50;47.70;;;;;;5058590;28;20640;-69
2024/02/07 06:51:02;;;;;;;4.07;1.70;;;9.60;47.70;;;;;;5061317;28;20649;-69
2024/02/07 06:53:29;;;;;;;5.75;1.80;;;9.60;47.70;;;;;;5061503;28;20222;-69
2024/02/07 06:55:56;;;;;;;3.22;1.20;;;9.60;47.70;;;;;;5071832;28;20277;-68
2024/02/07 06:58:23;;;;;;;4.10;2.30;;;9.70;47.70;;;;;;5063603;28;20313;-68
2024/02/07 07:00:53;;;;;;;5.35;1.63;;;9.70;47.60;;;;;;5055466;28;20274;-70
2024/02/07 07:03:20;;;;;;;3.50;1.50;;;9.80;47.30;;;;;;5072592;28;20189;-69
2024/02/07 07:05:47;;;;;;;4.65;1.67;;;9.90;47.20;;;;;;5058237;28;20286;-70
2024/02/07 07:08:14;;;;;;;2.40;1.17;;;9.90;47.10;;;;;;5059008;28;20218;-69
2024/02/07 07:10:42;;;;;;;5.47;1.95;;;10.00;46.00;;;;;;5071968;28;20233;-69
2024/02/07 07:13:09;;;;;;;3.95;1.60;;;10.10;46.00;;;;;;5065103;28;20198;-69
2024/02/07 07:15:36;;;;;;;2.80;1.50;;;10.10;45.80;;;;;;5056188;28;20195;-69
2024/02/07 07:18:05;;;;;;;5.60;1.38;;;10.10;45.70;;;;;;5055950;28;20719;-69
2024/02/07 07:20:32;;;;;;;5.90;1.83;;;10.10;45.60;;;;;;5055812;28;20695;-69
2024/02/07 07:22:59;;;;;;;8.07;1.80;;;10.10;45.70;;;;;;5056022;28;20218;-69
2024/02/07 07:25:26;;;;;;;5.25;1.92;;;10.10;45.80;;;;;;5067180;28;20202;-69
2024/02/07 07:27:53;;;;;;;4.25;1.52;;;10.10;45.90;;;;;;5075784;28;20200;-69
2024/02/07 07:30:20;;;;;;;2.22;1.00;;;10.10;45.90;;;;;;5076035;28;20198;-69
2024/02/07 07:32:47;;;;;;;3.95;1.40;;;10.20;45.80;;;;;;5076130;28;20220;-69
2024/02/07 07:35:16;;;;;;;3.20;1.83;;;10.20;45.80;;;;;;5075856;28;20276;-70
2024/02/07 07:37:43;;;;;;;4.63;2.03;;;10.20;45.90;;;;;;5075537;28;20222;-69
2024/02/07 07:40:11;;;;;;;6.00;1.58;;;10.20;45.80;;;;;;5071800;28;20221;-69
2024/02/07 07:42:38;;;;;;;3.75;1.05;;;10.30;45.80;;;;;;5055787;28;20229;-70
2024/02/07 07:45:06;;;;;;;3.58;1.88;;;10.30;45.80;;;;;;5056721;28;20610;-70
2024/02/07 07:47:33;;;;;;;4.47;1.75;;;10.50;46.10;;;;;;5071662;28;20623;-69
2024/02/07 07:50:00;;;;;;;4.35;2.10;;;10.70;45.50;;;;;;5062539;28;20177;-69
2024/02/07 07:52:28;;;;;;;3.25;1.55;;;10.80;45.00;;;;;;5075824;28;20201;-69
2024/02/07 07:54:55;;;;;;;2.80;1.45;;;11.10;44.90;;;;;;5075804;28;20666;-70
2024/02/07 07:57:22;;;;;;;2.22;0.90;;;11.40;44.90;;;;;;5076232;28;20233;-69
2024/02/07 07:59:49;;;;;;;2.50;1.25;;;11.70;44.50;;;;;;5075623;28;20210;-70
2024/02/07 08:02:16;;;;;;;2.40;1.13;;;12.10;44.20;;;;;;5076078;28;20217;-70
2024/02/07 08:04:43;;;;;;;4.57;1.50;;;12.60;43.10;;;;;;5075988;28;20364;-70
2024/02/07 08:07:09;;;;;;;4.40;1.42;;;13.00;42.50;;;;;;5075849;28;20225;-69
2024/02/07 08:09:38;;;;;;;3.43;1.60;;;13.40;41.70;;;;;;5075981;28;20649;-69
2024/02/07 08:12:06;;;;;;;5.50;2.23;;;13.90;40.40;;;;;;5075876;28;20432;-69
2024/02/07 08:14:33;;;;;;;3.60;1.60;;;14.30;39.40;;;;;;5075476;28;20922;-68
2024/02/07 08:16:59;;;;;;;4.23;1.43;;;14.70;38.40;;;;;;5075725;28;20499;-69
2024/02/07 08:19:26;;;;;;;9.43;1.53;;;14.70;37.40;;;;;;5075566;28;20570;-69
2024/02/07 08:21:53;;;;;;;4.53;1.23;;;14.70;37.00;;;;;;5075639;28;20486;-69
2024/02/07 08:24:20;;;;;;;3.80;1.20;;;14.90;36.80;;;;;;5075624;28;20463;-68
2024/02/07 08:26:49;;;;;;;4.40;1.80;;;15.20;36.60;;;;;;5075763;28;20447;-69
2024/02/07 08:29:16;;;;;;;3.53;1.70;;;15.50;35.70;;;;;;5075676;28;20531;-69
2024/02/07 08:31:43;;;;;;;4.93;1.20;;;15.80;35.20;;;;;;5075704;28;20846;-69
2024/02/07 08:34:10;;;;;;;2.73;1.00;;;16.10;34.60;;;;;;5075495;28;20511;-69
2024/02/07 08:36:37;;;;;;;4.30;1.57;;;16.40;34.30;;;;;;5075495;28;20852;-69
2024/02/07 08:39:04;;;;;;;8.80;1.63;;;16.70;33.80;;;;;;5074822;28;20487;-69
2024/02/07 08:41:31;;;;;;;3.00;1.30;;;17.10;33.40;;;;;;5075222;28;20479;-69
2024/02/07 08:44:00;;;;;;;2.83;1.20;;;17.60;32.30;;;;;;5075368;28;20525;-69
2024/02/07 08:46:27;;;;;;;4.10;1.30;;;18.00;31.90;;;;;;5074669;28;21036;-69
2024/02/07 08:48:54;;;;;;;2.87;1.00;;;18.30;30.70;;;;;;5074600;28;20526;-69
2024/02/07 08:51:21;;;;;;;3.33;1.63;;;18.60;30.00;;;;;;5074980;28;20445;-68
2024/02/07 08:53:49;;;;;;;2.77;1.27;;;18.80;29.50;;;;;;5074933;28;20466;-68
2024/02/07 08:56:16;;;;;;;4.67;1.30;;;19.00;29.10;;;;;;5074637;28;20936;-69
2024/02/07 08:58:43;;;;;;;3.10;1.30;;;19.20;28.90;;;;;;5074508;28;20436;-69
2024/02/07 09:01:13;;;;;;;2.90;1.13;;;19.40;28.80;;;;;;5074748;28;20525;-69
2024/02/07 09:03:40;;;;;;;5.73;1.20;;;19.60;28.00;;;;;;5074449;28;20908;-69
2024/02/07 09:06:10;;;;;;;2.50;0.90;;;19.70;27.80;;;;;;5074426;28;20513;-70
2024/02/07 09:08:36;;;;;;;2.50;1.03;;;20.00;28.00;;;;;;5074598;28;20491;-69
2024/02/07 09:11:04;;;;;;;5.30;1.80;;;20.10;27.30;;;;;;5074684;28;20857;-69
2024/02/07 09:13:31;;;;;;;3.10;2.37;;;19.90;27.40;;;;;;5074856;28;20852;-70
2024/02/07 09:15:58;;;;;;;3.33;1.23;;;19.40;27.10;;;;;;5074398;28;20468;-70
2024/02/07 09:18:26;;;;;;;3.23;0.80;;;19.20;27.50;;;;;;5074427;28;20470;-70
2024/02/07 09:20:53;;;;;;;3.27;1.30;;;19.00;27.80;;;;;;5074313;28;20521;-70
2024/02/07 09:23:20;;;;;;;2.93;1.40;;;19.00;28.00;;;;;;5074003;28;20471;-70
2024/02/07 09:25:47;;;;;;;3.00;1.00;;;19.20;28.10;;;;;;5074272;28;20471;-70
2024/02/07 09:28:14;;;;;;;3.00;1.03;;;19.30;27.70;;;;;;5073923;28;20937;-70
2024/02/07 09:30:47;;;;;;;6.07;1.27;;;19.50;27.90;;;;;;5074035;28;20445;-69
2024/02/07 09:33:15;;;;;;;2.87;0.90;;;19.90;27.60;;;;;;5073907;28;20463;-69
2024/02/07 09:35:47;;;;;;;3.40;1.00;;;20.30;26.90;;;;;;5073601;28;20424;-69
2024/02/07 09:38:14;;;;;;;2.53;1.03;;;20.70;26.50;;;;;;5074150;28;20474;-69
2024/02/07 09:40:44;;;;;;;2.80;1.13;;;21.00;26.20;;;;;;5073783;28;20555;-70
2024/02/07 09:43:11;;;;;;;4.00;1.10;;;21.20;25.80;;;;;;5074056;28;20423;-70
2024/02/07 09:45:42;;;;;;;2.80;0.93;;;21.50;25.70;;;;;;5073856;28;20432;-70
2024/02/07 09:48:18;;;;;;;3.43;1.93;;;21.80;25.30;;;;;;5073582;28;20483;-70
2024/02/07 09:50:49;;;;;;;3.70;1.30;;;21.90;24.90;;;;;;5073844;28;20504;-70
2024/02/07 09:53:19;;;;;;;5.60;1.47;;;21.60;24.50;;;;;;5073565;28;20439;-70
2024/02/07 09:55:48;;;;;;;3.50;1.10;;;21.10;24.90;;;;;;5073540;28;20921;-70
2024/02/07 09:58:18;;;;;;;3.70;1.13;;;20.60;24.90;;;;;;5073756;28;20489;-69
2024/02/07 10:00:46;;;;;;;3.73;1.40;;;20.10;25.40;;;;;;5073816;28;20526;-70
2024/02/07 10:03:16;;;;;;;5.13;1.57;;;19.60;25.80;;;;;;5073410;28;20489;-70
2024/02/07 10:05:50;;;;;;;3.23;1.07;;;19.10;26.40;;;;;;5073842;28;20459;-69
2024/02/07 10:08:17;;;;;;;2.70;1.07;;;18.70;26.40;;;;;;5073368;28;20464;-70
2024/02/07 10:10:46;;;;;;;2.83;1.10;;;18.30;27.20;;;;;;5073281;28;20474;-69
2024/02/07 10:13:15;;;;;;;5.70;2.07;;;17.90;27.60;;;;;;5073560;28;20438;-70
2024/02/07 10:15:43;;;;;;;3.10;1.17;;;17.60;28.20;;;;;;5073598;28;20842;-69
2024/02/07 10:18:10;;;;;;;4.93;2.70;;;17.30;28.70;;;;;;5073552;28;20771;-70
2024/02/07 10:20:37;;;;;;;3.80;1.47;;;17.00;28.90;;;;;;5073064;28;20980;-69
2024/02/07 10:23:08;;;;;;;8.23;1.50;;;16.90;29.30;;;;;;5073287;28;20524;-70
2024/02/07 10:25:35;;;;;;;3.07;1.20;;;16.80;29.50;;;;;;5073645;28;20482;-69
2024/02/07 10:28:03;;;;;;;2.50;1.07;;;16.70;29.50;;;;;;5073451;28;20429;-69
2024/02/07 10:30:30;;;;;;;3.07;1.23;;;16.50;29.50;;;;;;5073471;28;20472;-69
2024/02/07 10:32:59;;;;;;;4.53;1.40;;;16.30;29.70;;;;;;5073425;28;20494;-69
2024/02/07 10:35:26;;;;;;;2.90;1.40;;;16.20;30.20;;;;;;5073411;28;20443;-69
2024/02/07 10:37:55;;;;;;;7.97;1.23;;;16.10;30.40;;;;;;5073328;28;20436;-69
2024/02/07 10:40:24;;;;;;;2.73;1.43;;;16.00;30.40;;;;;;5073347;28;20468;-69
2024/02/07 10:42:55;;;;;;;3.70;1.10;;;16.00;30.50;;;;;;5072997;28;20475;-69
2024/02/07 10:45:23;;;;;;;6.80;1.30;;;16.20;30.30;;;;;;5073197;28;20515;-70
2024/02/07 10:47:52;;;;;;;5.77;1.40;;;16.20;29.90;;;;;;5076363;28;20467;-69
2024/02/07 10:50:21;;;;;;;3.17;1.67;;;16.20;30.50;;;;;;5077353;28;20440;-69
2024/02/07 10:52:50;;;;;;;3.30;1.47;;;16.10;30.60;;;;;;5077652;28;20475;-69
2024/02/07 10:55:18;;;;;;;3.03;1.70;;;16.00;30.00;;;;;;5077387;28;20515;-69
2024/02/07 10:57:56;;;;;;;4.30;1.40;;;15.90;30.10;;;;;;5077271;28;20436;-69
2024/02/07 11:00:23;;;;;;;3.63;1.17;;;15.70;30.80;;;;;;5077269;28;20566;-69
2024/02/07 11:02:52;;;;;;;2.47;1.10;;;15.60;30.70;;;;;;5076844;28;20913;-69
2024/02/07 11:05:21;;;;;;;4.80;1.63;;;15.60;30.90;;;;;;5077140;28;20442;-69
2024/02/07 11:07:49;;;;;;;2.87;1.13;;;15.50;30.90;;;;;;5076867;28;20440;-69
2024/02/07 11:10:17;;;;;;;6.13;1.37;;;15.50;31.40;;;;;;5076959;28;20443;-69
2024/02/07 11:12:44;;;;;;;3.10;1.20;;;15.70;31.80;;;;;;5076677;28;21010;-69
2024/02/07 11:15:13;;;;;;;3.87;1.80;;;16.20;31.90;;;;;;5076892;28;20432;-69
2024/02/07 11:17:40;;;;;;;3.23;1.00;;;16.50;30.90;;;;;;5076893;28;20435;-69
2024/02/07 11:20:10;;;;;;;3.93;1.33;;;16.80;30.20;;;;;;5076464;28;20507;-69
2024/02/07 11:22:42;;;;;;;2.77;1.13;;;16.90;29.90;;;;;;5076872;28;20491;-69
2024/02/07 11:25:16;;;;;;;3.23;1.00;;;17.10;29.50;;;;;;5076674;28;20507;-69
2024/02/07 11:27:44;;;;;;;2.63;0.80;;;17.20;29.60;;;;;;5076703;28;20412;-69
2024/02/07 11:30:13;;;;;;;2.80;1.33;;;17.20;29.30;;;;;;5076634;28;20479;-69
2024/02/07 11:32:47;;;;;;;2.60;1.50;;;17.40;29.50;;;;;;5076253;28;20459;-69
2024/02/07 11:35:15;;;;;;;2.63;1.10;;;18.00;28.70;;;;;;5076635;28;20499;-69
2024/02/07 11:37:43;;;;;;;2.53;1.30;;;18.50;28.30;;;;;;5076179;28;20469;-70
2024/02/07 11:40:14;;;;;;;2.60;0.90;;;18.80;27.60;;;;;;5076329;28;20730;-69
2024/02/07 11:42:43;;;;;;;2.20;0.87;;;19.10;27.50;;;;;;5076420;28;20415;-69
2024/02/07 11:45:13;;;;;;;3.63;1.10;;;19.40;26.20;;;;;;5076054;28;20521;-70
2024/02/07 11:47:42;;;;;;;2.43;0.93;;;19.40;26.50;;;;;;5075819;28;20555;-70
2024/02/07 11:50:14;;;;;;;2.20;0.80;;;19.70;26.00;;;;;;5076212;28;20438;-70
2024/02/07 11:52:44;;;;;;;6.43;1.07;;;19.80;25.80;;;;;;5076297;28;20432;-70
2024/02/07 11:55:14;;;;;;;2.83;1.10;;;20.00;26.10;;;;;;5075885;28;20755;-70
2024/02/07 11:57:42;;;;;;;3.97;1.87;;;20.20;25.60;;;;;;5075598;28;20421;-69
2024/02/07 12:00:15;;;;;;;3.40;0.87;;;20.40;25.50;;;;;;5076105;28;20470;-70
2024/02/07 12:02:47;;;;;;;6.60;1.70;;;20.70;25.40;;;;;;5076111;28;20476;-70
2024/02/07 12:05:17;;;;;;;3.00;1.00;;;21.00;24.70;;;;;;5068713;28;20950;-69
2024/02/07 12:07:44;;;;;;;2.60;0.87;;;20.70;24.40;;;;;;5055927;28;20445;-69
2024/02/07 12:10:14;;;;;;;3.90;1.50;;;20.20;24.30;;;;;;5058291;28;20487;-70
2024/02/07 12:12:42;;;;;;;3.20;1.40;;;19.80;25.00;;;;;;5075800;28;20523;-70
2024/02/07 12:15:10;;;;;;;2.80;1.37;;;19.40;25.60;;;;;;5075097;28;20440;-70
2024/02/07 12:17:38;;;;;;;3.53;1.30;;;19.00;25.50;;;;;;5068751;28;20516;-69
2024/02/07 12:20:07;;;;;;;2.27;1.33;;;18.50;25.90;;;;;;5055740;28;20479;-69
2024/02/07 12:22:35;;;;;;;3.43;1.20;;;18.20;26.10;;;;;;5055658;28;20467;-69
2024/02/07 12:25:05;;;;;;;2.70;1.13;;;17.80;26.60;;;;;;5056656;28;20430;-70
2024/02/07 12:27:32;;;;;;;2.10;0.80;;;17.40;27.00;;;;;;5074781;28;20952;-69
2024/02/07 12:29:59;;;;;;;3.80;1.37;;;17.10;27.50;;;;;;5074008;28;20439;-70
2024/02/07 12:32:26;;;;;;;2.73;1.17;;;16.90;28.00;;;;;;5068459;28;20521;-69
2024/02/07 12:34:55;;;;;;;4.20;1.67;;;16.60;28.00;;;;;;5055030;28;20483;-70
2024/02/07 12:37:22;;;;;;;2.27;1.00;;;16.40;28.30;;;;;;5069126;28;20429;-69
2024/02/07 12:39:50;;;;;;;2.80;1.10;;;16.30;28.30;;;;;;5054902;28;20540;-69
2024/02/07 12:42:22;;;;;;;3.03;1.20;;;16.20;28.70;;;;;;5069323;28;20480;-69
2024/02/07 12:44:51;;;;;;;2.83;1.37;;;16.30;28.80;;;;;;5074158;28;20464;-70
2024/02/07 12:47:20;;;;;;;2.43;1.03;;;16.30;28.40;;;;;;5074957;28;20467;-69
2024/02/07 12:49:48;;;;;;;3.40;1.03;;;16.20;28.80;;;;;;5074045;28;20436;-69
2024/02/07 12:52:17;;;;;;;2.27;0.97;;;16.10;28.70;;;;;;5070917;28;20788;-69
2024/02/07 12:54:46;;;;;;;4.07;1.20;;;16.00;28.60;;;;;;5074900;28;20467;-70
2024/02/07 12:57:21;;;;;;;4.07;1.00;;;16.00;29.00;;;;;;5074850;28;20520;-69
2024/02/07 12:59:48;;;;;;;2.97;1.77;;;15.90;29.10;;;;;;5075205;28;20442;-69
2024/02/07 13:02:16;;;;;;;3.07;1.47;;;15.90;29.00;;;;;;5074838;28;20497;-69
2024/02/07 13:04:44;;;;;;;2.40;1.20;;;15.80;29.20;;;;;;5075042;28;20438;-69
2024/02/07 13:07:12;;;;;;;2.93;1.20;;;15.90;29.40;;;;;;5074556;28;20471;-69
2024/02/07 13:09:41;;;;;;;3.00;1.20;;;15.90;29.40;;;;;;5073534;28;20424;-69
2024/02/07 13:12:09;;;;;;;4.23;1.00;;;15.90;29.30;;;;;;5074671;28;20832;-69
2024/02/07 13:14:39;;;;;;;2.40;0.90;;;15.90;29.50;;;;;;5074276;28;20968;-69
2024/02/07 13:17:06;;;;;;;4.00;1.50;;;15.90;29.90;;;;;;5074542;28;20432;-69
2024/02/07 13:19:38;;;;;;;2.63;1.33;;;15.90;29.90;;;;;;5074728;28;20768;-69
2024/02/07 13:22:15;;;;;;;1.97;0.83;;;15.90;29.80;;;;;;5074128;28;20559;-69
2024/02/07 13:24:43;;;;;;;2.83;1.87;;;15.80;29.70;;;;;;5074105;28;20493;-69
2024/02/07 13:27:11;;;;;;;2.27;0.97;;;15.70;29.80;;;;;;5074229;28;20432;-69
2024/02/07 13:29:40;;;;;;;2.53;1.70;;;15.70;30.00;;;;;;5074341;28;20436;-69
2024/02/07 13:32:12;;;;;;;2.67;1.30;;;15.60;29.90;;;;;;5074269;28;20502;-69
2024/02/07 13:34:41;;;;;;;3.40;1.23;;;15.50;30.00;;;;;;5074375;28;20787;-69
2024/02/07 13:37:13;;;;;;;2.60;1.03;;;15.40;30.10;;;;;;5074221;28;20443;-69
2024/02/07 13:39:40;;;;;;;2.87;1.20;;;15.40;30.50;;;;;;5074326;28;20524;-69
2024/02/07 13:42:08;;;;;;;2.47;1.00;;;15.30;30.40;;;;;;5074049;28;20471;-69
2024/02/07 13:44:35;;;;;;;2.70;1.33;;;15.20;30.70;;;;;;5073799;28;20436;-69
2024/02/07 13:47:06;;;;;;;12.53;1.70;;;15.20;30.80;;;;;;5073791;28;20486;-69
2024/02/07 13:49:33;;;;;;;3.60;1.03;;;15.10;30.70;;;;;;5073941;28;20440;-69
2024/02/07 13:52:01;;;;;;;3.30;1.33;;;14.90;31.30;;;;;;5073715;28;20530;-69
2024/02/07 13:54:34;;;;;;;5.20;1.53;;;14.90;31.60;;;;;;5073896;28;20502;-69
2024/02/07 13:57:01;;;;;;;3.10;1.30;;;14.90;31.70;;;;;;5074013;28;20438;-69
2024/02/07 13:59:29;;;;;;;3.03;1.30;;;14.80;31.60;;;;;;5073859;28;20547;-69
2024/02/07 14:01:59;;;;;;;2.50;1.17;;;14.80;31.70;;;;;;5073738;28;20467;-69